Time;durP1;ratioP1;P1;durP2;ratioP2;P2;SDS_P1;SDS_P2;PMS_P1;PMS_P2;Temp;Humidity;BMP_temperature;BMP_pressure;BME280_temperature;BME280_humidity;BME280_pressure;Samples;Min_cycle;Max_cycle;Signal;HPM_P1;HPM_P2
2022/09/08 00:00:13;;;;;;;18.60;15.80;;;;;;;18.71;100.00;100180.47;5556045;32;33426;-69
2022/09/08 00:03:17;;;;;;;18.45;16.50;;;;;;;18.67;100.00;100180.09;5569860;32;33942;-69
2022/09/08 00:06:20;;;;;;;18.65;16.52;;;;;;;18.63;100.00;100181.59;5542354;32;33152;-70
2022/09/08 00:09:23;;;;;;;21.12;18.02;;;;;;;18.59;100.00;100175.84;5569423;32;34454;-69
2022/09/08 00:12:25;;;;;;;18.50;16.25;;;;;;;18.64;100.00;100175.16;5555717;32;33356;-69
2022/09/08 00:15:29;;;;;;;22.55;17.17;;;;;;;18.57;100.00;100177.94;5569287;32;34570;-69
2022/09/08 00:18:31;;;;;;;18.20;16.30;;;;;;;18.54;100.00;100174.91;5569242;32;34328;-69
2022/09/08 00:21:34;;;;;;;19.10;16.98;;;;;;;18.52;100.00;100168.88;5555461;32;33857;-69
2022/09/08 00:24:37;;;;;;;18.48;16.50;;;;;;;18.55;100.00;100158.53;5570905;32;33978;-69
2022/09/08 00:27:40;;;;;;;19.17;16.45;;;;;;;18.74;100.00;100158.50;5571522;32;34420;-68
2022/09/08 00:30:43;;;;;;;20.75;17.70;;;;;;;18.70;100.00;100162.69;5571555;32;33806;-69
2022/09/08 00:33:45;;;;;;;19.90;17.75;;;;;;;18.69;100.00;100153.03;5557792;32;34591;-69
2022/09/08 00:36:48;;;;;;;19.33;17.33;;;;;;;18.68;100.00;100149.50;5571463;32;33958;-69
2022/09/08 00:39:51;;;;;;;19.87;17.37;;;;;;;18.65;100.00;100152.63;5557770;32;33803;-69
2022/09/08 00:43:04;;;;;;;19.10;17.05;;;;;;;18.60;100.00;100144.41;5557807;32;32369;-69
2022/09/08 00:46:14;;;;;;;19.42;17.30;;;;;;;18.57;100.00;100142.19;5571430;32;34002;-69
2022/09/08 00:49:21;;;;;;;19.85;16.85;;;;;;;18.46;100.00;100135.69;5571350;32;33937;-69
2022/09/08 00:52:28;;;;;;;19.25;17.25;;;;;;;18.37;100.00;100133.50;5571351;32;33900;-69
2022/09/08 00:55:37;;;;;;;20.92;17.65;;;;;;;18.40;100.00;100128.50;5571352;32;34585;-69
2022/09/08 00:58:41;;;;;;;;;;;;;;;18.34;100.00;100136.66;5558214;32;34614;-69
2022/09/08 01:01:43;;;;;;;19.67;17.58;;;;;;;18.27;100.00;100135.91;5571505;32;34585;-69
2022/09/08 01:04:46;;;;;;;21.25;17.35;;;;;;;18.17;100.00;100137.25;5571210;32;34466;-69
2022/09/08 01:14:57;;;;;;;19.42;17.30;;;;;;;18.18;100.00;100146.94;5571023;32;34639;-68
2022/09/08 01:18:00;;;;;;;20.90;18.70;;;;;;;18.35;100.00;100138.31;5571150;32;33952;-69
2022/09/08 01:21:34;;;;;;;22.80;18.95;;;;;;;18.21;100.00;100140.28;5571141;32;33890;-69
2022/09/08 01:25:16;;;;;;;21.67;19.45;;;;;;;18.18;100.00;100138.06;5566299;32;34544;-69
2022/09/08 01:28:28;;;;;;;21.73;18.92;;;;;;;18.14;100.00;100137.69;5571074;32;34602;-69
2022/09/08 01:31:33;;;;;;;21.40;18.90;;;;;;;18.16;100.00;100132.09;5557368;32;34238;-70
2022/09/08 01:34:41;;;;;;;20.88;18.65;;;;;;;18.17;100.00;100134.56;5570373;32;33822;-69
2022/09/08 01:37:44;;;;;;;20.70;18.58;;;;;;;18.08;100.00;100127.03;5556791;32;32631;-69
2022/09/08 01:40:46;;;;;;;19.87;17.87;;;;;;;17.98;100.00;100122.16;5571254;32;33943;-69
2022/09/08 01:43:50;;;;;;;22.42;19.45;;;;;;;17.92;100.00;100124.91;5571227;32;34545;-69
2022/09/08 01:46:52;;;;;;;21.73;18.35;;;;;;;17.85;100.00;100124.16;5557252;32;34584;-69
2022/09/08 01:49:55;;;;;;;21.00;18.65;;;;;;;17.83;100.00;100128.91;5570920;32;34716;-69
2022/09/08 01:52:58;;;;;;;21.05;18.20;;;;;;;17.83;100.00;100131.59;5570828;32;34589;-69
2022/09/08 01:56:01;;;;;;;21.42;18.45;;;;;;;17.86;100.00;100133.88;5557123;32;32503;-69
2022/09/08 01:59:03;;;;;;;20.80;18.55;;;;;;;17.78;100.00;100134.94;5570817;32;34612;-69
2022/09/08 02:02:06;;;;;;;20.02;17.95;;;;;;;17.83;100.00;100136.97;5557060;32;34268;-69
2022/09/08 02:05:09;;;;;;;20.58;17.35;;;;;;;17.96;100.00;100131.50;5570801;32;33955;-69
2022/09/08 02:08:12;;;;;;;20.40;17.85;;;;;;;17.97;100.00;100125.88;5570568;32;33811;-69
2022/09/08 02:11:16;;;;;;;21.20;18.50;;;;;;;17.94;100.00;100125.53;5557062;32;34248;-69
2022/09/08 02:14:18;;;;;;;19.87;17.77;;;;;;;17.86;100.00;100132.00;5556914;32;32838;-69
2022/09/08 02:17:21;;;;;;;20.60;18.42;;;;;;;17.79;100.00;100126.69;5570937;32;33861;-69
2022/09/08 02:20:24;;;;;;;21.20;18.77;;;;;;;17.78;100.00;100124.22;5570666;32;33834;-69
2022/09/08 02:23:27;;;;;;;20.98;18.77;;;;;;;17.69;100.00;100130.91;5570478;32;34369;-69
2022/09/08 02:26:30;;;;;;;19.70;17.70;;;;;;;17.71;100.00;100120.78;5570523;32;34006;-69
2022/09/08 02:29:33;;;;;;;20.23;18.05;;;;;;;17.61;100.00;100128.50;5570561;32;34751;-69
2022/09/08 02:32:35;;;;;;;22.60;18.75;;;;;;;17.57;100.00;100129.97;5570350;32;33894;-68
2022/09/08 02:35:38;;;;;;;21.10;18.90;;;;;;;17.54;100.00;100128.53;5556511;32;32642;-69
2022/09/08 02:38:41;;;;;;;20.60;18.23;;;;;;;17.48;100.00;100128.56;5570679;32;34689;-69
2022/09/08 02:41:44;;;;;;;21.87;18.62;;;;;;;17.55;100.00;100130.19;5570416;32;33753;-69
2022/09/08 02:44:46;;;;;;;21.92;19.00;;;;;;;17.44;100.00;100128.19;5570406;32;34591;-69
2022/09/08 02:47:49;;;;;;;22.65;18.30;;;;;;;17.39;100.00;100119.97;5555546;32;33324;-69
2022/09/08 02:50:51;;;;;;;21.20;18.90;;;;;;;17.35;100.00;100132.19;5570439;32;35184;-69
2022/09/08 02:53:55;;;;;;;21.75;19.40;;;;;;;17.30;100.00;100132.00;5556581;32;33907;-69
2022/09/08 02:56:57;;;;;;;21.95;19.55;;;;;;;17.27;100.00;100127.09;5570288;32;33969;-69
2022/09/08 03:00:00;;;;;;;23.55;19.83;;;;;;;17.24;100.00;100120.28;5570464;32;33952;-69
2022/09/08 03:03:03;;;;;;;22.65;19.30;;;;;;;17.20;100.00;100119.09;5556095;32;32508;-69
2022/09/08 03:06:06;;;;;;;21.30;18.90;;;;;;;17.19;100.00;100113.94;5569994;32;34532;-69
2022/09/08 03:09:09;;;;;;;24.58;19.90;;;;;;;17.19;100.00;100125.47;5569962;32;34471;-69
2022/09/08 03:12:12;;;;;;;22.87;20.45;;;;;;;17.16;100.00;100123.25;5570080;32;35152;-69
2022/09/08 03:15:15;;;;;;;23.05;20.67;;;;;;;17.16;100.00;100123.25;5570057;32;33797;-69
2022/09/08 03:18:18;;;;;;;23.52;20.30;;;;;;;17.12;100.00;100114.00;5570061;32;34690;-69
2022/09/08 03:21:20;;;;;;;22.67;20.37;;;;;;;17.09;100.00;100118.97;5556321;32;33987;-68
2022/09/08 03:24:24;;;;;;;23.42;20.70;;;;;;;17.09;100.00;100114.41;5556242;32;33923;-69
2022/09/08 03:27:27;;;;;;;23.62;21.17;;;;;;;17.09;100.00;100119.78;5569968;32;34047;-69
2022/09/08 03:30:30;;;;;;;21.12;19.02;;;;;;;17.15;100.00;100118.09;5569993;32;34597;-69
2022/09/08 03:33:32;;;;;;;21.73;19.50;;;;;;;17.17;100.00;100118.72;5569909;32;34355;-69
2022/09/08 03:36:35;;;;;;;21.42;18.87;;;;;;;17.17;100.00;100113.34;5569867;32;33915;-69
2022/09/08 03:39:38;;;;;;;22.08;19.60;;;;;;;17.29;100.00;100117.78;5556252;32;33021;-69
2022/09/08 03:42:42;;;;;;;22.83;20.27;;;;;;;17.42;100.00;100116.06;5556194;32;32693;-69
2022/09/08 03:45:45;;;;;;;21.50;19.20;;;;;;;17.47;100.00;100124.28;5569762;32;34059;-69
2022/09/08 03:48:49;;;;;;;22.87;19.50;;;;;;;17.37;100.00;100130.12;5570090;32;33089;-69
2022/09/08 03:51:51;;;;;;;21.90;19.55;;;;;;;17.30;100.00;100130.16;5569612;32;34005;-70
2022/09/08 03:54:54;;;;;;;22.60;20.12;;;;;;;17.27;100.00;100133.28;5569542;32;35169;-69
2022/09/08 03:57:58;;;;;;;27.70;19.77;;;;;;;17.29;100.00;100143.78;5569402;32;34561;-69
2022/09/08 04:01:01;;;;;;;21.17;18.98;;;;;;;17.25;100.00;100140.72;5569469;32;34603;-68
2022/09/08 04:04:04;;;;;;;20.90;18.70;;;;;;;17.21;100.00;100139.50;5555920;32;33978;-69
2022/09/08 04:07:07;;;;;;;21.20;19.10;;;;;;;17.25;100.00;100151.44;5562778;32;218221;-68
2022/09/08 04:10:12;;;;;;;21.12;18.62;;;;;;;17.26;100.00;100137.00;5569382;32;33769;-69
2022/09/08 04:13:20;;;;;;;23.17;20.30;;;;;;;17.25;100.00;100139.88;5555261;32;32961;-69
2022/09/08 04:16:23;;;;;;;21.40;19.23;;;;;;;17.29;100.00;100147.28;5569497;32;34437;-69
2022/09/08 04:19:26;;;;;;;21.17;18.92;;;;;;;17.27;100.00;100148.53;5569098;32;34407;-69
2022/09/08 04:22:29;;;;;;;22.37;20.00;;;;;;;17.25;100.00;100164.84;5569208;32;34301;-69
2022/09/08 04:25:32;;;;;;;25.88;18.77;;;;;;;17.23;100.00;100172.25;5568947;32;34593;-69
2022/09/08 04:28:35;;;;;;;22.08;18.60;;;;;;;17.26;100.00;100166.50;5568976;32;34622;-69
2022/09/08 04:31:38;;;;;;;21.23;18.52;;;;;;;17.22;100.00;100154.56;5569021;32;34630;-69
2022/09/08 04:34:41;;;;;;;22.45;19.00;;;;;;;17.27;100.00;100152.06;5568665;32;33844;-69
2022/09/08 04:37:44;;;;;;;20.88;18.60;;;;;;;17.31;100.00;100147.91;5568730;32;33912;-69
2022/09/08 04:40:47;;;;;;;22.67;19.12;;;;;;;17.35;100.00;100140.22;5568748;32;33901;-69
2022/09/08 04:43:50;;;;;;;22.37;18.05;;;;;;;17.35;100.00;100134.88;5568881;32;33937;-69
2022/09/08 04:46:53;;;;;;;19.95;17.85;;;;;;;17.42;100.00;100127.59;5541758;32;32716;-69
2022/09/08 04:49:55;;;;;;;19.98;17.73;;;;;;;17.45;100.00;100140.56;5554803;32;34817;-68
2022/09/08 04:52:58;;;;;;;18.83;16.50;;;;;;;17.51;100.00;100136.19;5568629;32;33910;-69
2022/09/08 04:56:02;;;;;;;20.02;17.45;;;;;;;17.72;100.00;100146.56;5568383;32;34450;-68
2022/09/08 04:59:05;;;;;;;22.95;17.02;;;;;;;17.80;100.00;100148.97;5568242;32;35056;-69
2022/09/08 05:02:07;;;;;;;19.52;17.35;;;;;;;17.78;100.00;100154.56;5568457;32;34041;-68
2022/09/08 05:05:10;;;;;;;19.48;17.23;;;;;;;17.90;100.00;100149.31;5554545;32;32784;-69
2022/09/08 05:08:13;;;;;;;19.25;16.67;;;;;;;17.91;100.00;100153.59;5567952;32;33897;-69
2022/09/08 05:11:17;;;;;;;19.25;16.85;;;;;;;18.01;100.00;100155.81;5571165;32;34735;-69
2022/09/08 05:14:20;;;;;;;21.35;17.67;;;;;;;18.06;100.00;100153.25;5570801;32;34274;-68
2022/09/08 05:17:23;;;;;;;19.35;16.52;;;;;;;18.17;100.00;100153.34;5557758;32;32982;-68
2022/09/08 05:20:26;;;;;;;24.75;17.35;;;;;;;18.22;100.00;100158.87;5571016;32;33961;-68
2022/09/08 05:23:29;;;;;;;19.45;16.05;;;;;;;18.30;100.00;100160.44;5556921;32;34002;-68
2022/09/08 05:26:32;;;;;;;21.95;16.27;;;;;;;18.33;100.00;100167.25;5531493;32;33354;-70
2022/09/08 05:29:35;;;;;;;19.40;16.75;;;;;;;18.41;100.00;100150.81;5570794;32;34532;-69
2022/09/08 05:32:37;;;;;;;18.52;16.42;;;;;;;18.33;100.00;100161.88;5556889;32;32635;-69
2022/09/08 05:35:40;;;;;;;20.92;16.20;;;;;;;18.41;100.00;100162.37;5570353;32;33921;-69
2022/09/08 05:38:44;;;;;;;18.50;16.08;;;;;;;18.57;100.00;100163.69;5556261;32;34531;-69
2022/09/08 05:41:47;;;;;;;19.05;16.50;;;;;;;18.72;100.00;100164.12;5570695;32;35160;-69
2022/09/08 05:44:50;;;;;;;18.77;16.15;;;;;;;18.74;100.00;100167.41;5570438;32;34134;-70
2022/09/08 05:47:52;;;;;;;17.42;15.35;;;;;;;18.74;100.00;100167.41;5556439;32;33782;-68
2022/09/08 05:50:55;;;;;;;17.45;15.65;;;;;;;18.80;100.00;100169.19;5556522;32;33875;-68
2022/09/08 05:53:59;;;;;;;20.10;16.58;;;;;;;18.82;100.00;100161.72;5543588;32;34605;-70
2022/09/08 05:57:01;;;;;;;22.98;15.90;;;;;;;18.97;100.00;100159.47;5570137;32;34372;-70
2022/09/08 06:00:04;;;;;;;19.30;16.05;;;;;;;19.10;99.63;100159.28;5570426;32;33930;-69
2022/09/08 06:03:11;;;;;;;18.30;15.48;;;;;;;19.08;98.83;100160.53;5569887;32;33966;-69
2022/09/08 06:06:16;;;;;;;22.45;16.60;;;;;;;19.23;97.77;100160.94;5569928;32;33946;-69
2022/09/08 06:09:19;;;;;;;18.58;15.15;;;;;;;19.31;95.35;100157.12;5543529;32;35000;-70
2022/09/08 06:12:22;;;;;;;23.30;14.50;;;;;;;19.36;93.63;100154.56;5570257;32;33898;-70
2022/09/08 06:15:25;;;;;;;20.30;14.57;;;;;;;19.58;91.70;100165.63;5569676;32;34664;-69
2022/09/08 06:18:28;;;;;;;18.23;14.05;;;;;;;19.69;90.36;100154.88;5556077;32;32153;-70
2022/09/08 06:21:32;;;;;;;19.83;14.27;;;;;;;19.83;90.31;100160.84;5555733;32;33312;-70
2022/09/08 06:24:35;;;;;;;17.02;13.38;;;;;;;20.00;89.50;100156.38;5569727;32;34556;-71
2022/09/08 06:27:51;;;;;;;19.23;13.18;;;;;;;20.19;88.58;100143.62;5569807;32;34037;-71
2022/09/08 06:30:55;;;;;;;18.05;13.60;;;;;;;20.36;86.25;100144.56;5556021;32;33218;-69
2022/09/08 06:34:10;;;;;;;14.90;12.98;;;;;;;20.59;84.75;100141.81;5569563;32;34638;-70
2022/09/08 06:37:37;;;;;;;17.25;12.55;;;;;;;20.80;83.39;100145.75;5556235;32;32647;-69
2022/09/08 06:41:18;;;;;;;14.65;11.15;;;;;;;21.39;79.19;100151.72;5559037;32;33710;-70
2022/09/08 06:44:26;;;;;;;16.87;12.02;;;;;;;22.05;75.73;100137.38;5569767;32;33906;-70
2022/09/08 06:47:41;;;;;;;14.30;10.43;;;;;;;22.57;75.65;100143.19;5555235;32;33473;-70
2022/09/08 06:51:20;;;;;;;15.80;10.32;;;;;;;23.39;70.95;100133.00;5569504;32;34709;-71
2022/09/08 06:54:59;;;;;;;16.53;10.07;;;;;;;23.30;70.55;100120.19;5540706;32;33738;-71
2022/09/08 06:58:14;;;;;;;12.10;9.23;;;;;;;23.69;67.97;100118.94;5569686;32;34598;-70
2022/09/08 07:01:34;;;;;;;14.57;9.18;;;;;;;24.39;65.12;100122.34;5556127;32;33311;-70
2022/09/08 07:05:15;;;;;;;14.75;8.48;;;;;;;24.94;63.24;100119.84;5556065;32;32932;-71
2022/09/08 07:08:43;;;;;;;14.65;7.70;;;;;;;24.86;62.83;100120.34;5492538;32;33655;-71
2022/09/08 07:11:52;;;;;;;10.68;7.65;;;;;;;25.42;61.14;100115.00;5539527;32;34464;-71
2022/09/08 07:15:22;;;;;;;9.60;7.57;;;;;;;25.74;57.82;100112.84;5550245;32;33790;-71
2022/09/08 07:18:35;;;;;;;10.82;7.12;;;;;;;25.94;57.31;100110.09;5549657;32;34027;-71
2022/09/08 07:21:43;;;;;;;9.30;6.85;;;;;;;27.02;55.38;100109.38;5550112;32;33913;-71
2022/09/08 07:24:50;;;;;;;14.75;7.18;;;;;;;27.26;52.66;100114.94;5523536;32;33652;-71
2022/09/08 07:28:00;;;;;;;8.02;6.65;;;;;;;26.67;54.03;100107.69;5536329;32;32529;-71
2022/09/08 07:31:05;;;;;;;9.38;7.15;;;;;;;26.32;55.72;100108.66;5511310;32;32749;-71
2022/09/08 07:34:15;;;;;;;13.48;7.18;;;;;;;26.56;54.74;100110.72;5549113;32;34705;-71
2022/09/08 07:37:38;;;;;;;10.95;7.80;;;;;;;27.33;53.36;100107.25;5536445;32;34547;-72
2022/09/08 07:40:48;;;;;;;15.38;7.18;;;;;;;27.66;51.81;100113.81;5549860;32;34073;-71
2022/09/08 07:43:57;;;;;;;9.77;6.70;;;;;;;27.83;52.10;100116.94;5549677;32;33945;-69
2022/09/08 07:47:21;;;;;;;12.75;7.12;;;;;;;28.46;50.51;100119.53;5549703;32;35248;-70
2022/09/08 07:50:54;;;;;;;11.45;6.95;;;;;;;28.61;48.68;100121.25;5535879;32;33015;-70
2022/09/08 07:54:09;;;;;;;11.52;6.60;;;;;;;28.11;50.29;100126.22;5535833;32;33333;-69
2022/09/08 07:57:36;;;;;;;17.80;7.00;;;;;;;28.57;48.69;100131.09;5549442;32;33910;-70
2022/09/08 08:00:53;;;;;;;12.85;6.68;;;;;;;29.38;47.24;100125.37;5535756;32;32415;-70
2022/09/08 08:04:00;;;;;;;15.02;6.70;;;;;;;29.75;46.52;100119.78;5550053;32;34564;-70
2022/09/08 08:07:12;;;;;;;9.60;6.10;;;;;;;30.29;45.00;100131.13;5554230;32;34236;-70
2022/09/08 08:10:22;;;;;;;13.18;6.53;;;;;;;30.20;45.55;100123.62;5569098;32;34540;-70
2022/09/08 08:13:51;;;;;;;9.52;6.53;;;;;;;30.88;43.18;100130.19;5555048;32;34051;-70
2022/09/08 08:17:13;;;;;;;10.63;6.43;;;;;;;30.78;43.27;100133.94;5546810;32;32582;-70
2022/09/08 08:20:19;;;;;;;13.02;6.60;;;;;;;31.97;41.66;100137.94;5568832;32;33942;-70
2022/09/08 08:23:27;;;;;;;10.82;6.57;;;;;;;32.05;40.62;100139.13;5568966;32;34662;-70
2022/09/08 08:26:49;;;;;;;;;;;;;;;30.91;42.91;100140.50;5554931;32;33968;-69
2022/09/08 08:30:13;;;;;;;10.50;6.28;;;;;;;31.79;40.38;100133.50;5568770;32;34188;-70
2022/09/08 08:33:21;;;;;;;9.25;6.12;;;;;;;31.51;42.25;100132.81;5568304;32;33798;-70
2022/09/08 08:36:26;;;;;;;9.07;6.30;;;;;;;31.91;40.67;100129.03;5555139;32;32519;-69
2022/09/08 08:39:32;;;;;;;13.57;5.85;;;;;;;31.92;40.00;100140.81;5554642;32;32475;-69
2022/09/08 08:43:11;;;;;;;7.62;5.57;;;;;;;32.62;39.87;100129.00;5568334;32;33817;-70
2022/09/08 08:46:25;;;;;;;13.85;5.40;;;;;;;32.77;39.56;100134.84;5538911;32;33816;-70
2022/09/08 08:49:52;;;;;;;13.98;6.00;;;;;;;34.04;36.28;100125.19;5556933;32;32582;-69
2022/09/08 08:53:23;;;;;;;8.88;5.68;;;;;;;33.77;36.89;100136.63;5571080;32;34071;-69
2022/09/08 08:57:18;;;;;;;7.93;5.75;;;;;;;35.60;33.46;100139.56;5570360;32;33877;-69
2022/09/08 09:00:23;;;;;;;15.05;6.22;;;;;;;34.53;34.35;100129.19;5522464;32;32464;-70
2022/09/08 09:03:45;;;;;;;8.48;6.05;;;;;;;31.08;42.50;100116.81;5555895;32;32367;-69
2022/09/08 09:07:18;;;;;;;14.30;6.68;;;;;;;29.90;44.55;100113.28;5570528;32;34013;-69
2022/09/08 09:10:48;;;;;;;9.45;6.62;;;;;;;28.24;50.88;100098.22;5570502;32;33952;-70
2022/09/08 09:14:03;;;;;;;9.10;6.80;;;;;;;27.96;50.32;100099.06;5570465;32;34364;-68
2022/09/08 09:17:25;;;;;;;12.27;7.32;;;;;;;27.55;51.63;100085.03;5570428;32;34527;-70
2022/09/08 09:20:54;;;;;;;13.30;7.37;;;;;;;26.87;53.55;100076.81;5570396;32;33966;-69
2022/09/08 09:24:14;;;;;;;14.35;7.30;;;;;;;27.16;53.68;100071.44;5556433;32;33195;-69
2022/09/08 09:27:44;;;;;;;15.00;7.75;;;;;;;27.10;54.25;100061.69;5570306;32;33905;-69
2022/09/08 09:31:09;;;;;;;17.48;8.00;;;;;;;26.77;54.83;100060.53;5570482;32;35001;-67
2022/09/08 09:34:41;;;;;;;13.93;7.90;;;;;;;27.12;54.80;100051.31;5570766;32;34618;-69
2022/09/08 09:38:00;;;;;;;12.02;7.47;;;;;;;26.99;54.67;100049.25;5570429;32;34072;-68
2022/09/08 09:41:23;;;;;;;12.90;7.32;;;;;;;27.20;55.75;100056.16;5570440;32;34583;-69
2022/09/08 09:45:04;;;;;;;10.85;7.85;;;;;;;27.19;55.01;100068.16;5571657;32;34245;-68
2022/09/08 09:48:29;;;;;;;15.88;7.30;;;;;;;27.17;53.61;100062.16;5556762;32;33116;-69
2022/09/08 09:51:32;;;;;;;11.00;6.95;;;;;;;27.07;53.82;100056.81;5556909;32;32738;-70
2022/09/08 09:54:53;;;;;;;9.07;6.68;;;;;;;27.06;55.34;100041.59;5570644;32;33799;-73
2022/09/08 09:58:19;;;;;;;12.35;7.05;;;;;;;27.33;55.59;100041.88;5555840;32;33772;-69
2022/09/08 10:01:47;;;;;;;10.38;6.50;;;;;;;27.35;54.27;100031.53;5556710;32;34525;-70
2022/09/08 10:05:12;;;;;;;12.55;6.10;;;;;;;27.14;54.37;100030.87;5570048;32;34591;-68
2022/09/08 10:08:36;;;;;;;13.73;6.75;;;;;;;27.30;53.81;100017.13;5556498;32;33476;-70
2022/09/08 10:12:12;;;;;;;10.75;6.55;;;;;;;27.52;53.37;100022.94;5556701;32;35726;-70
2022/09/08 10:15:52;;;;;;;9.43;6.25;;;;;;;27.48;52.85;100011.78;5570106;32;35203;-69
2022/09/08 10:19:12;;;;;;;11.00;6.12;;;;;;;27.49;52.98;100012.63;5555887;32;32352;-69
2022/09/08 10:22:40;;;;;;;10.15;6.10;;;;;;;27.75;53.91;100013.13;5570098;32;34653;-68
2022/09/08 10:25:58;;;;;;;11.15;6.82;;;;;;;27.78;51.91;100010.66;5570219;32;33971;-69
2022/09/08 10:29:16;;;;;;;8.23;6.12;;;;;;;27.92;52.77;99999.88;5570131;32;34323;-69
2022/09/08 10:32:57;;;;;;;7.00;5.80;;;;;;;28.23;52.91;100003.03;5570058;32;34577;-68
2022/09/08 10:36:10;;;;;;;8.00;6.00;;;;;;;28.09;51.68;100009.19;5556390;32;32346;-68
2022/09/08 10:39:39;;;;;;;9.13;6.62;;;;;;;27.86;52.06;100004.56;5570062;32;34221;-68
2022/09/08 10:42:48;;;;;;;9.27;5.70;;;;;;;28.14;51.79;99991.16;5569987;32;34652;-68
2022/09/08 10:46:39;;;;;;;15.65;5.90;;;;;;;27.90;50.83;99993.87;5570588;32;35193;-69
2022/09/08 10:50:07;;;;;;;8.32;4.90;;;;;;;28.27;50.95;99999.41;5522170;32;32304;-68
2022/09/08 10:53:43;;;;;;;6.60;4.65;;;;;;;31.27;44.00;100009.78;5570114;32;34266;-69
2022/09/08 10:56:47;;;;;;;4.78;4.03;;;;;;;33.30;39.90;100021.03;5556038;32;33055;-69
2022/09/08 11:00:04;;;;;;;7.70;4.28;;;;;;;34.00;37.71;100012.19;5569667;32;34574;-70
2022/09/08 11:03:35;;;;;;;8.45;4.00;;;;;;;36.91;33.52;100006.53;5569972;32;33910;-69
2022/09/08 11:06:54;;;;;;;7.95;3.80;;;;;;;37.35;31.29;100006.53;5555904;32;33166;-69
2022/09/08 11:10:28;;;;;;;5.80;2.78;;;;;;;39.41;28.05;100001.66;5555637;32;32341;-68
2022/09/08 11:13:37;;;;;;;6.35;3.05;;;;;;;38.63;28.25;100005.66;5555700;32;32414;-70
2022/09/08 11:17:08;;;;;;;10.05;3.15;;;;;;;38.47;28.46;100001.38;5555840;32;32665;-69
2022/09/08 11:20:34;;;;;;;8.00;3.33;;;;;;;39.67;27.08;100005.66;5556001;32;32549;-70
2022/09/08 11:24:09;;;;;;;7.28;2.90;;;;;;;36.61;31.48;99999.72;5556531;32;34458;-70
2022/09/08 11:27:40;;;;;;;5.43;2.72;;;;;;;37.92;29.51;99994.94;5517356;32;33174;-69
2022/09/08 11:30:52;;;;;;;6.28;2.60;;;;;;;38.78;28.69;99989.34;5569797;32;34613;-71
2022/09/08 11:34:38;;;;;;;9.70;2.83;;;;;;;38.93;27.41;99994.81;5555924;32;32180;-70
2022/09/08 11:38:02;;;;;;;3.03;2.20;;;;;;;39.75;26.43;99993.53;5524205;32;32760;-70
2022/09/08 11:41:25;;;;;;;10.02;2.87;;;;;;;38.02;28.63;99994.41;5569762;32;34298;-70
2022/09/08 11:44:41;;;;;;;7.80;2.80;;;;;;;39.52;26.98;99997.09;5569759;32;34535;-68
2022/09/08 11:48:09;;;;;;;15.88;2.50;;;;;;;39.91;26.50;100019.19;5569546;32;34445;-70
2022/09/08 11:51:19;;;;;;;9.85;2.65;;;;;;;41.22;23.98;100013.41;5569565;32;33881;-71
2022/09/08 11:54:48;;;;;;;6.05;2.50;;;;;;;40.55;25.27;99992.31;5555755;32;32411;-70
2022/09/08 11:58:12;;;;;;;8.20;2.28;;;;;;;39.19;27.46;99984.97;5555863;32;32625;-70
2022/09/08 12:01:27;;;;;;;5.10;2.70;;;;;;;39.13;26.93;99974.19;5555905;32;33155;-71
2022/09/08 12:04:51;;;;;;;11.77;2.65;;;;;;;39.08;27.19;99968.94;5569412;32;35215;-70
2022/09/08 12:08:51;;;;;;;5.47;2.20;;;;;;;38.77;27.11;99971.09;5569013;32;34596;-70
2022/09/08 12:12:19;;;;;;;9.80;2.22;;;;;;;36.67;30.37;99984.50;5555494;32;35079;-69
2022/09/08 12:15:28;;;;;;;4.45;2.03;;;;;;;33.54;35.51;99976.47;5568886;32;33895;-70
2022/09/08 12:18:53;;;;;;;7.25;1.90;;;;;;;35.09;32.99;99978.97;5554522;32;33233;-69
2022/09/08 12:21:55;;;;;;;7.80;2.12;;;;;;;36.84;30.89;99973.13;5568851;32;33958;-70
2022/09/08 12:25:25;;;;;;;10.15;2.25;;;;;;;37.94;28.43;99964.91;5569124;32;33892;-69
2022/09/08 12:29:08;;;;;;;7.32;1.90;;;;;;;37.49;29.06;99957.09;5568979;32;33825;-68
2022/09/08 12:32:41;;;;;;;7.50;2.20;;;;;;;36.57;29.96;99963.66;5555439;32;35054;-69
2022/09/08 12:35:58;;;;;;;7.47;1.92;;;;;;;37.10;28.94;99952.50;5532390;32;32557;-69
2022/09/08 12:39:35;;;;;;;6.03;2.12;;;;;;;35.60;31.02;99940.91;5568927;32;33870;-68
2022/09/08 12:42:47;;;;;;;6.28;1.80;;;;;;;36.33;30.99;99952.69;5554999;32;32406;-69
2022/09/08 12:46:07;;;;;;;6.87;2.17;;;;;;;36.95;29.13;99952.09;5568103;32;34559;-70
2022/09/08 12:49:43;;;;;;;6.22;1.85;;;;;;;36.99;29.57;99946.66;5554788;32;32967;-69
2022/09/08 12:52:52;;;;;;;4.25;1.87;;;;;;;35.63;30.95;99927.19;5554803;32;33953;-69
2022/09/08 12:55:57;;;;;;;;;;;;;;;34.46;32.60;99920.38;5568852;32;33951;-68
2022/09/08 12:59:27;;;;;;;7.03;1.80;;;;;;;34.41;33.37;99917.03;5554787;32;35311;-69
2022/09/08 13:03:08;;;;;;;;;;;;;;;34.10;33.33;99922.09;5554974;32;32694;-69
2022/09/08 13:06:21;;;;;;;14.25;2.67;;;;;;;33.52;34.75;99916.28;5476505;32;35099;-68
2022/09/08 13:09:26;;;;;;;13.38;2.22;;;;;;;34.15;33.00;99911.69;5478222;32;32357;-69
2022/09/08 13:12:41;;;;;;;10.80;1.98;;;;;;;33.30;34.49;99911.06;5554404;32;33507;-70
2022/09/08 13:15:53;;;;;;;6.30;2.15;;;;;;;34.10;33.39;99900.88;5568155;32;34703;-69
2022/09/08 13:19:03;;;;;;;9.60;2.10;;;;;;;34.21;33.29;99904.09;5554454;32;35159;-70
2022/09/08 13:22:19;;;;;;;8.15;1.70;;;;;;;34.91;32.55;99899.56;5568134;32;33901;-70
2022/09/08 13:25:31;;;;;;;9.02;2.08;;;;;;;34.35;32.90;99893.59;5554337;32;33056;-69
2022/09/08 13:28:55;;;;;;;15.43;2.53;;;;;;;32.96;36.66;99880.91;5567937;32;34194;-69
2022/09/08 13:32:27;;;;;;;10.77;2.20;;;;;;;31.79;38.73;99878.37;5555436;32;32900;-70
2022/09/08 13:35:55;;;;;;;12.20;2.25;;;;;;;31.87;38.90;99869.34;5556938;32;33573;-68
2022/09/08 13:39:08;;;;;;;5.68;1.90;;;;;;;31.64;39.96;99860.44;5543808;32;32725;-70
2022/09/08 13:42:59;;;;;;;8.27;1.90;;;;;;;31.25;39.62;99855.78;5570321;32;33829;-69
2022/09/08 13:46:23;;;;;;;11.48;2.35;;;;;;;30.88;39.32;99859.81;5557029;32;34030;-69
2022/09/08 13:50:03;;;;;;;7.50;2.00;;;;;;;30.28;40.46;99862.13;5556707;32;33384;-68
2022/09/08 13:53:24;;;;;;;8.98;2.40;;;;;;;30.03;41.04;99860.78;5570116;32;33849;-69
2022/09/08 13:56:49;;;;;;;15.50;2.17;;;;;;;30.12;41.39;99850.72;5543873;32;32613;-69
2022/09/08 14:00:11;;;;;;;10.38;2.17;;;;;;;30.13;42.59;99857.81;5543362;32;32407;-69
2022/09/08 14:03:18;;;;;;;8.32;2.17;;;;;;;29.95;43.16;99858.78;5543360;32;34079;-70
2022/09/08 14:06:23;;;;;;;13.95;2.33;;;;;;;29.81;43.51;99855.25;5556052;32;33842;-69
2022/09/08 14:09:28;;;;;;;6.47;2.15;;;;;;;29.54;45.47;99847.91;5555797;32;32491;-69
2022/09/08 14:12:31;;;;;;;11.35;2.58;;;;;;;29.21;46.56;99841.72;5556328;32;32266;-69
2022/09/08 14:15:42;;;;;;;13.15;2.95;;;;;;;29.03;47.42;99839.91;5569973;32;34224;-69
2022/09/08 14:19:05;;;;;;;16.17;4.55;;;;;;;28.82;47.07;99839.47;5555733;32;33229;-69
2022/09/08 14:22:38;;;;;;;12.90;2.58;;;;;;;28.78;47.52;99832.19;5556277;32;34643;-68
2022/09/08 14:25:41;;;;;;;10.07;3.05;;;;;;;28.65;48.27;99822.84;5555959;32;34573;-70
2022/09/08 14:29:02;;;;;;;10.55;3.45;;;;;;;28.41;48.48;99812.06;5569336;32;34278;-69
2022/09/08 14:32:27;;;;;;;8.38;2.83;;;;;;;28.44;50.18;99813.38;5569840;32;35076;-69
2022/09/08 14:35:36;;;;;;;7.05;2.62;;;;;;;28.29;49.55;99814.44;5543128;32;32378;-69
2022/09/08 14:38:59;;;;;;;11.63;2.60;;;;;;;28.26;49.64;99811.50;5556189;32;33355;-69
2022/09/08 14:42:25;;;;;;;10.65;2.62;;;;;;;28.05;50.20;99808.25;5569730;32;34083;-69
2022/09/08 14:45:42;;;;;;;6.20;2.20;;;;;;;28.00;50.57;99814.59;5555967;32;33964;-69
2022/09/08 14:49:14;;;;;;;13.00;2.53;;;;;;;28.05;50.28;99822.72;5556371;32;32334;-69
2022/09/08 14:52:29;;;;;;;15.40;3.75;;;;;;;27.72;51.82;99848.28;5570103;32;34002;-70